Time;durP1;ratioP1;P1;durP2;ratioP2;P2;SDS_P1;SDS_P2;PMS_P1;PMS_P2;Temp;Humidity;BMP_temperature;BMP_pressure;BME280_temperature;BME280_humidity;BME280_pressure;Samples;Min_cycle;Max_cycle;Signal;HPM_P1;HPM_P2
2022/07/25 00:00:53;;;;;;;6.75;4.20;;;;;;;;;;5026818;28;20092;-76
2022/07/25 00:03:18;;;;;;;8.05;4.32;;;;;;;;;;5027009;28;20029;-76
2022/07/25 00:05:44;;;;;;;7.97;4.45;;;;;;;;;;5026714;28;20028;-74
2022/07/25 00:08:09;;;;;;;10.80;4.38;;;;;;;;;;5027143;28;20033;-74
2022/07/25 00:10:34;;;;;;;11.63;4.53;;;;;;;;;;5027171;28;20032;-74
2022/07/25 00:13:00;;;;;;;8.40;4.55;;;;;;;;;;5027053;28;20554;-74
2022/07/25 00:15:25;;;;;;;7.80;4.28;;;;;;;;;;5027000;28;20021;-77
2022/07/25 00:17:51;;;;;;;9.48;4.43;;;;;;;;;;5026589;28;20129;-78
2022/07/25 00:20:16;;;;;;;8.40;4.10;;;;;;;;;;5026813;28;20052;-75
2022/07/25 00:22:42;;;;;;;8.52;4.22;;;;;;;;;;5026774;28;20021;-77
2022/07/25 00:25:07;;;;;;;9.45;4.30;;;;;;;;;;5026995;28;20022;-76
2022/07/25 00:27:33;;;;;;;11.80;4.10;;;;;;;;;;5026722;28;20044;-77
2022/07/25 00:29:58;;;;;;;8.10;4.10;;;;;;;;;;5026872;28;20036;-78
2022/07/25 00:32:24;;;;;;;8.23;4.10;;;;;;;;;;5026785;28;20377;-76
2022/07/25 00:34:49;;;;;;;9.32;4.10;;;;;;;;;;5026746;28;20032;-77
2022/07/25 00:37:14;;;;;;;8.02;3.80;;;;;;;;;;5026400;28;20029;-77
2022/07/25 00:39:40;;;;;;;10.70;4.25;;;;;;;;;;5026583;28;20021;-76
2022/07/25 00:42:05;;;;;;;8.40;4.18;;;;;;;;;;5026798;28;20029;-76
2022/07/25 00:44:32;;;;;;;7.30;4.20;;;;;;;;;;5026702;28;20033;-76
2022/07/25 00:46:58;;;;;;;9.02;4.35;;;;;;;;;;5029653;28;20025;-77
2022/07/25 00:49:24;;;;;;;8.15;4.40;;;;;;;;;;5030001;28;20036;-76
2022/07/25 00:51:51;;;;;;;9.68;4.32;;;;;;;;;;5029909;28;20487;-77
2022/07/25 00:54:17;;;;;;;9.32;4.47;;;;;;;;;;5029825;28;20060;-77
2022/07/25 00:56:43;;;;;;;10.27;4.60;;;;;;;;;;5029822;28;20033;-76
2022/07/25 00:59:08;;;;;;;10.30;4.82;;;;;;;;;;5030035;28;20026;-76
2022/07/25 01:01:35;;;;;;;9.85;4.85;;;;;;;;;;5029721;28;20120;-76
2022/07/25 01:04:07;;;;;;;7.93;4.72;;;;;;;;;;5029937;28;20489;-77
2022/07/25 01:06:33;;;;;;;9.02;5.07;;;;;;;;;;5029375;28;20072;-77
2022/07/25 01:08:59;;;;;;;8.18;5.22;;;;;;;;;;5030067;28;20057;-77
2022/07/25 01:11:25;;;;;;;12.52;5.35;;;;;;;;;;5029662;28;20032;-76
2022/07/25 01:13:50;;;;;;;7.65;5.05;;;;;;;;;;5030226;28;20472;-77
2022/07/25 01:16:16;;;;;;;12.57;4.88;;;;;;;;;;5029540;28;20042;-77
2022/07/25 01:18:41;;;;;;;10.85;5.63;;;;;;;;;;5029563;28;20607;-76
2022/07/25 01:21:07;;;;;;;13.30;5.90;;;;;;;;;;5029591;28;20086;-77
2022/07/25 01:23:32;;;;;;;9.07;5.50;;;;;;;;;;5029513;28;20026;-76
2022/07/25 01:25:58;;;;;;;12.20;6.00;;;;;;;;;;5029311;28;20060;-77
2022/07/25 01:28:23;;;;;;;12.00;6.20;;;;;;;;;;5029225;28;20515;-77
2022/07/25 01:30:49;;;;;;;9.35;5.70;;;;;;;;;;5029292;28;20396;-77
2022/07/25 01:33:16;;;;;;;10.82;6.18;;;;;;;;;;5029460;28;20033;-76
2022/07/25 01:35:43;;;;;;;10.65;6.28;;;;;;;;;;5029383;28;20021;-76
2022/07/25 01:38:08;;;;;;;8.55;6.10;;;;;;;;;;5029167;28;20021;-77
2022/07/25 01:40:33;;;;;;;11.68;6.18;;;;;;;;;;5029412;28;20374;-76
2022/07/25 01:42:59;;;;;;;11.38;6.40;;;;;;;;;;5029271;28;20116;-76
2022/07/25 01:45:24;;;;;;;14.35;6.57;;;;;;;;;;5029061;28;20110;-76
2022/07/25 01:47:50;;;;;;;9.85;5.88;;;;;;;;;;5028822;28;20029;-76
2022/07/25 01:50:15;;;;;;;11.27;6.18;;;;;;;;;;5029189;28;20064;-76
2022/07/25 01:52:41;;;;;;;13.00;6.53;;;;;;;;;;5028962;28;20029;-75
2022/07/25 01:55:07;;;;;;;12.10;6.55;;;;;;;;;;5029266;28;20151;-74
2022/07/25 01:57:33;;;;;;;12.40;6.15;;;;;;;;;;5028645;28;20601;-76
2022/07/25 01:59:58;;;;;;;10.63;6.13;;;;;;;;;;5028989;28;20025;-75
2022/07/25 02:02:24;;;;;;;12.88;6.00;;;;;;;;;;5028720;28;20055;-75
2022/07/25 02:04:50;;;;;;;10.63;5.97;;;;;;;;;;5027514;28;20036;-75
2022/07/25 02:07:15;;;;;;;13.40;6.20;;;;;;;;;;5028513;28;20461;-76
2022/07/25 02:09:40;;;;;;;11.30;6.15;;;;;;;;;;5028879;28;20151;-75
2022/07/25 02:12:06;;;;;;;9.70;6.25;;;;;;;;;;5027738;28;20038;-75
2022/07/25 02:14:32;;;;;;;12.68;6.07;;;;;;;;;;5028739;28;20037;-75
2022/07/25 02:16:58;;;;;;;15.30;6.22;;;;;;;;;;5028648;28;20029;-74
2022/07/25 02:19:23;;;;;;;9.65;6.28;;;;;;;;;;5028608;28;20104;-74
2022/07/25 02:21:49;;;;;;;12.13;6.53;;;;;;;;;;5028345;28;20112;-75
2022/07/25 02:24:14;;;;;;;12.50;6.53;;;;;;;;;;5028604;28;20424;-75
2022/07/25 02:26:40;;;;;;;7.63;5.75;;;;;;;;;;5028402;28;20031;-74
2022/07/25 02:29:05;;;;;;;11.35;6.38;;;;;;;;;;5028501;28;20078;-74
2022/07/25 02:31:31;;;;;;;9.80;6.00;;;;;;;;;;5028618;28;20116;-75
2022/07/25 02:33:56;;;;;;;13.75;6.57;;;;;;;;;;5028376;28;20025;-74
2022/07/25 02:36:22;;;;;;;12.98;6.63;;;;;;;;;;5028477;28;20370;-74
2022/07/25 02:38:47;;;;;;;12.77;6.35;;;;;;;;;;5028104;28;20029;-75
2022/07/25 02:41:13;;;;;;;12.57;5.65;;;;;;;;;;5028160;28;20026;-75
2022/07/25 02:43:38;;;;;;;9.68;5.93;;;;;;;;;;5028308;28;20021;-74
2022/07/25 02:46:04;;;;;;;12.55;6.15;;;;;;;;;;5028287;28;20032;-75
2022/07/25 02:48:29;;;;;;;13.93;6.25;;;;;;;;;;5028087;28;20555;-75
2022/07/25 02:50:55;;;;;;;10.38;6.00;;;;;;;;;;5028264;28;20022;-74
2022/07/25 02:53:20;;;;;;;9.68;6.40;;;;;;;;;;5027967;28;20065;-75
2022/07/25 02:55:45;;;;;;;10.27;6.10;;;;;;;;;;5028006;28;20040;-75
2022/07/25 02:58:11;;;;;;;9.93;6.05;;;;;;;;;;5027744;28;20053;-75
2022/07/25 03:00:36;;;;;;;10.68;5.82;;;;;;;;;;5027807;28;20029;-75
2022/07/25 03:03:02;;;;;;;10.98;5.85;;;;;;;;;;5028013;28;20022;-75
2022/07/25 03:05:27;;;;;;;10.55;5.80;;;;;;;;;;5027992;28;20060;-78
2022/07/25 03:07:53;;;;;;;10.82;6.07;;;;;;;;;;5026772;28;20461;-76
2022/07/25 03:10:18;;;;;;;10.73;5.97;;;;;;;;;;5026626;28;20132;-76
2022/07/25 03:12:44;;;;;;;13.05;6.25;;;;;;;;;;5027683;28;20104;-76
2022/07/25 03:15:11;;;;;;;10.07;5.65;;;;;;;;;;5027775;28;20025;-75
2022/07/25 03:17:37;;;;;;;11.80;5.53;;;;;;;;;;5027572;28;20034;-76
2022/07/25 03:20:05;;;;;;;8.93;5.53;;;;;;;;;;5027818;28;20627;-76
2022/07/25 03:22:31;;;;;;;13.30;5.32;;;;;;;;;;5027656;28;20040;-75
2022/07/25 03:24:56;;;;;;;7.55;5.00;;;;;;;;;;5027652;28;20030;-75
2022/07/25 03:27:21;;;;;;;10.07;5.40;;;;;;;;;;5027454;28;20064;-76
2022/07/25 03:29:47;;;;;;;10.82;5.70;;;;;;;;;;5026203;28;20018;-77
2022/07/25 03:32:12;;;;;;;10.77;5.32;;;;;;;;;;5027486;28;20026;-77
2022/07/25 03:34:38;;;;;;;11.63;5.60;;;;;;;;;;5027485;28;20034;-76
2022/07/25 03:37:04;;;;;;;11.80;5.40;;;;;;;;;;5027311;28;20025;-76
2022/07/25 03:39:30;;;;;;;8.43;4.93;;;;;;;;;;5027542;28;20446;-77
2022/07/25 03:41:56;;;;;;;9.00;5.15;;;;;;;;;;5027382;28;20030;-76
2022/07/25 03:44:22;;;;;;;8.20;5.05;;;;;;;;;;5027542;28;20082;-77
2022/07/25 03:46:48;;;;;;;12.70;5.63;;;;;;;;;;5027348;28;20033;-78
2022/07/25 03:49:14;;;;;;;9.32;5.43;;;;;;;;;;5025772;28;20118;-77
2022/07/25 03:51:39;;;;;;;8.88;4.75;;;;;;;;;;5027138;28;20064;-78
2022/07/25 03:54:05;;;;;;;11.35;5.20;;;;;;;;;;5027405;28;20029;-77
2022/07/25 03:56:36;;;;;;;11.30;4.93;;;;;;;;;;5027380;28;20030;-76
2022/07/25 03:59:03;;;;;;;8.70;4.72;;;;;;;;;;5027280;28;20059;-76
2022/07/25 04:01:28;;;;;;;9.85;4.68;;;;;;;;;;5027113;28;20124;-77
2022/07/25 04:03:54;;;;;;;6.40;4.75;;;;;;;;;;5027110;28;20109;-76
2022/07/25 04:06:19;;;;;;;9.63;4.80;;;;;;;;;;5026848;28;20068;-76
2022/07/25 04:08:45;;;;;;;9.07;4.95;;;;;;;;;;5026990;28;20070;-76
2022/07/25 04:11:10;;;;;;;9.00;4.60;;;;;;;;;;5027014;28;20036;-77
2022/07/25 04:13:36;;;;;;;9.68;4.53;;;;;;;;;;5025786;28;20036;-78
2022/07/25 04:16:01;;;;;;;7.55;4.55;;;;;;;;;;5025792;28;20025;-78
2022/07/25 04:18:27;;;;;;;8.57;4.55;;;;;;;;;;5027057;28;20033;-76
2022/07/25 04:20:52;;;;;;;9.13;4.95;;;;;;;;;;5030232;28;20026;-77
2022/07/25 04:23:17;;;;;;;9.95;4.50;;;;;;;;;;5030166;28;20424;-76
2022/07/25 04:25:43;;;;;;;9.48;4.50;;;;;;;;;;5030346;28;20031;-76
2022/07/25 04:28:08;;;;;;;8.23;3.95;;;;;;;;;;5030211;28;20025;-76
2022/07/25 04:30:33;;;;;;;12.30;4.53;;;;;;;;;;5030439;28;20451;-75
2022/07/25 04:32:59;;;;;;;10.07;4.40;;;;;;;;;;5030363;28;20029;-76
2022/07/25 04:35:24;;;;;;;6.68;4.30;;;;;;;;;;5030299;28;20025;-75
2022/07/25 04:37:50;;;;;;;8.27;4.30;;;;;;;;;;5029967;28;20040;-76
2022/07/25 04:40:15;;;;;;;9.77;4.40;;;;;;;;;;5030159;28;20026;-77
2022/07/25 04:42:41;;;;;;;9.32;4.50;;;;;;;;;;5030006;28;20107;-76
2022/07/25 04:45:07;;;;;;;8.30;4.35;;;;;;;;;;5030217;28;20060;-77
2022/07/25 04:47:33;;;;;;;8.13;4.47;;;;;;;;;;5030211;28;20061;-76
2022/07/25 04:49:58;;;;;;;9.52;4.55;;;;;;;;;;5030276;28;20049;-75
2022/07/25 04:52:24;;;;;;;10.60;4.75;;;;;;;;;;5030151;28;20486;-75
2022/07/25 04:54:49;;;;;;;9.25;4.50;;;;;;;;;;5029870;28;20025;-76
2022/07/25 04:57:14;;;;;;;8.15;4.35;;;;;;;;;;5029921;28;20032;-75
2022/07/25 04:59:40;;;;;;;8.07;4.20;;;;;;;;;;5029659;28;20033;-76
2022/07/25 05:02:05;;;;;;;10.02;4.55;;;;;;;;;;5029689;28;20045;-75
2022/07/25 05:04:31;;;;;;;9.25;4.85;;;;;;;;;;5029805;28;20025;-75
2022/07/25 05:06:56;;;;;;;10.63;4.78;;;;;;;;;;5029691;28;20029;-76
2022/07/25 05:09:21;;;;;;;8.30;4.25;;;;;;;;;;5029704;28;20029;-76
2022/07/25 05:11:47;;;;;;;11.07;4.63;;;;;;;;;;5029811;28;20461;-76
2022/07/25 05:14:12;;;;;;;9.02;4.72;;;;;;;;;;5029880;28;20036;-76
2022/07/25 05:16:38;;;;;;;10.68;5.00;;;;;;;;;;5029541;28;20469;-76
2022/07/25 05:19:03;;;;;;;7.35;4.60;;;;;;;;;;5029454;28;20030;-76
2022/07/25 05:21:29;;;;;;;10.15;5.18;;;;;;;;;;5029555;28;20391;-76
2022/07/25 05:23:54;;;;;;;8.25;4.80;;;;;;;;;;5029568;28;20108;-75
2022/07/25 05:26:20;;;;;;;12.65;4.70;;;;;;;;;;5029617;28;20026;-76
2022/07/25 05:28:45;;;;;;;10.02;4.88;;;;;;;;;;5029232;28;20059;-76
2022/07/25 05:31:10;;;;;;;9.55;4.80;;;;;;;;;;5028845;28;20559;-75
2022/07/25 05:33:36;;;;;;;8.95;4.88;;;;;;;;;;5029409;28;20030;-76
2022/07/25 05:36:03;;;;;;;8.48;4.60;;;;;;;;;;5029247;28;20030;-77
2022/07/25 05:38:28;;;;;;;10.10;4.93;;;;;;;;;;5029179;28;20028;-76
2022/07/25 05:40:54;;;;;;;8.00;4.82;;;;;;;;;;5029223;28;20034;-76
2022/07/25 05:43:19;;;;;;;10.40;5.10;;;;;;;;;;5029360;28;20029;-76
2022/07/25 05:45:46;;;;;;;8.52;5.00;;;;;;;;;;5029135;28;20107;-77
2022/07/25 05:48:12;;;;;;;7.78;4.75;;;;;;;;;;5028912;28;20481;-77
2022/07/25 05:50:37;;;;;;;10.10;4.43;;;;;;;;;;5027842;28;20026;-75
2022/07/25 05:53:03;;;;;;;9.10;4.20;;;;;;;;;;5028866;28;20078;-76
2022/07/25 05:55:28;;;;;;;8.93;4.38;;;;;;;;;;5029135;28;20025;-75
2022/07/25 05:57:54;;;;;;;8.45;4.07;;;;;;;;;;5028961;28;20099;-76
2022/07/25 06:00:19;;;;;;;6.97;3.72;;;;;;;;;;5029146;28;20017;-77
2022/07/25 06:02:44;;;;;;;7.22;3.67;;;;;;;;;;5028841;28;20048;-76
2022/07/25 06:05:10;;;;;;;8.52;3.70;;;;;;;;;;5028851;28;20061;-75
2022/07/25 06:07:35;;;;;;;7.72;3.70;;;;;;;;;;5028572;28;20045;-75
2022/07/25 06:10:01;;;;;;;9.60;3.45;;;;;;;;;;5028476;28;20030;-75
2022/07/25 06:12:26;;;;;;;7.03;3.42;;;;;;;;;;5028834;28;20657;-74
2022/07/25 06:14:52;;;;;;;7.15;3.50;;;;;;;;;;5029076;28;20026;-74
2022/07/25 06:17:17;;;;;;;6.07;3.08;;;;;;;;;;5028832;28;20034;-75
2022/07/25 06:19:43;;;;;;;6.97;3.30;;;;;;;;;;5027113;28;20477;-75
2022/07/25 06:22:10;;;;;;;7.28;3.72;;;;;;;;;;5028501;28;20025;-74
2022/07/25 06:24:35;;;;;;;7.13;3.75;;;;;;;;;;5028479;28;20030;-74
2022/07/25 06:27:01;;;;;;;11.88;3.78;;;;;;;;;;5028425;28;20041;-75
2022/07/25 06:29:26;;;;;;;10.15;3.72;;;;;;;;;;5028224;28;20025;-76
2022/07/25 06:31:52;;;;;;;10.10;3.65;;;;;;;;;;5028538;28;20101;-74
2022/07/25 06:34:17;;;;;;;8.13;3.60;;;;;;;;;;5028540;28;20113;-75
2022/07/25 06:36:43;;;;;;;10.35;3.90;;;;;;;;;;5028574;28;20064;-75
2022/07/25 06:39:08;;;;;;;8.32;3.80;;;;;;;;;;5028085;28;20090;-74
2022/07/25 06:41:35;;;;;;;10.32;3.83;;;;;;;;;;5028175;28;20470;-75
2022/07/25 06:44:01;;;;;;;11.05;3.78;;;;;;;;;;5027249;28;20064;-76
2022/07/25 06:46:29;;;;;;;12.45;4.03;;;;;;;;;;5027998;28;20076;-75
2022/07/25 06:48:55;;;;;;;14.43;4.10;;;;;;;;;;5027974;28;20434;-76
2022/07/25 06:51:22;;;;;;;11.52;4.20;;;;;;;;;;5026875;28;20094;-75
2022/07/25 06:53:48;;;;;;;12.27;4.25;;;;;;;;;;5027962;28;20029;-74
2022/07/25 06:56:13;;;;;;;9.00;4.15;;;;;;;;;;5028189;28;20033;-74
2022/07/25 06:58:39;;;;;;;9.93;3.90;;;;;;;;;;5027813;28;20022;-74
2022/07/25 07:01:05;;;;;;;13.00;4.30;;;;;;;;;;5027771;28;20045;-75
2022/07/25 07:03:31;;;;;;;12.75;4.43;;;;;;;;;;5026627;28;20029;-74
2022/07/25 07:05:56;;;;;;;10.43;4.20;;;;;;;;;;5027605;28;20030;-74
2022/07/25 07:08:22;;;;;;;8.63;3.92;;;;;;;;;;5027792;28;20404;-74
2022/07/25 07:10:47;;;;;;;7.53;3.80;;;;;;;;;;5027950;28;20528;-75
2022/07/25 07:13:14;;;;;;;9.30;3.97;;;;;;;;;;5027992;28;20017;-76
2022/07/25 07:15:45;;;;;;;11.45;4.15;;;;;;;;;;5027746;28;20074;-78
2022/07/25 07:18:11;;;;;;;15.32;3.90;;;;;;;;;;5027689;28;20029;-75
2022/07/25 07:20:36;;;;;;;15.25;4.20;;;;;;;;;;5027667;28;20026;-76
2022/07/25 07:23:02;;;;;;;13.82;3.95;;;;;;;;;;5027711;28;20073;-75
2022/07/25 07:25:27;;;;;;;19.13;4.30;;;;;;;;;;5026428;28;20053;-77
2022/07/25 07:27:53;;;;;;;14.13;4.25;;;;;;;;;;5027496;28;20034;-75
2022/07/25 07:30:18;;;;;;;12.68;3.80;;;;;;;;;;5027698;28;20025;-75
2022/07/25 07:32:44;;;;;;;11.23;4.13;;;;;;;;;;5027455;28;20022;-75
2022/07/25 07:35:11;;;;;;;11.15;3.90;;;;;;;;;;5027296;28;20067;-79
2022/07/25 07:37:37;;;;;;;14.30;3.78;;;;;;;;;;5027272;28;20071;-79
2022/07/25 07:40:03;;;;;;;14.45;3.83;;;;;;;;;;5027412;28;20125;-79
2022/07/25 07:42:39;;;;;;;8.52;3.53;;;;;;;;;;5027324;28;20026;-78
2022/07/25 07:45:13;;;;;;;10.05;3.60;;;;;;;;;;5027576;28;20089;-78
2022/07/25 07:47:39;;;;;;;7.38;3.47;;;;;;;;;;5027349;28;20495;-77
2022/07/25 07:50:05;;;;;;;8.52;4.00;;;;;;;;;;5027300;28;20029;-77
2022/07/25 07:52:31;;;;;;;9.15;3.90;;;;;;;;;;5027152;28;20034;-78
2022/07/25 07:57:40;;;;;;;10.95;4.10;;;;;;;;;;5027129;28;20041;-76
2022/07/25 08:00:06;;;;;;;7.88;3.60;;;;;;;;;;5027436;28;20022;-77
2022/07/25 08:02:32;;;;;;;8.60;3.83;;;;;;;;;;5026939;28;20389;-77
2022/07/25 08:04:57;;;;;;;7.18;3.60;;;;;;;;;;5027235;28;20500;-77
2022/07/25 08:07:23;;;;;;;9.98;3.65;;;;;;;;;;5026996;28;20044;-77
2022/07/25 08:09:48;;;;;;;7.85;3.85;;;;;;;;;;5027146;28;20098;-76
2022/07/25 08:12:13;;;;;;;11.77;3.97;;;;;;;;;;5026916;28;20564;-77
2022/07/25 08:14:39;;;;;;;10.15;3.70;;;;;;;;;;5027219;28;20449;-77
2022/07/25 08:17:05;;;;;;;7.05;3.63;;;;;;;;;;5026995;28;20029;-78
2022/07/25 08:19:30;;;;;;;9.57;4.30;;;;;;;;;;5026768;28;20033;-78
2022/07/25 08:21:56;;;;;;;9.63;3.92;;;;;;;;;;5025557;28;20025;-78
2022/07/25 08:24:21;;;;;;;11.18;4.00;;;;;;;;;;5027062;28;20057;-77
2022/07/25 08:26:47;;;;;;;7.90;3.38;;;;;;;;;;5026626;28;20036;-77
2022/07/25 08:29:12;;;;;;;6.07;3.60;;;;;;;;;;5026546;28;20447;-77
2022/07/25 08:31:37;;;;;;;8.10;3.67;;;;;;;;;;5026795;28;20025;-79
2022/07/25 08:34:03;;;;;;;8.68;3.70;;;;;;;;;;5026937;28;20374;-76
2022/07/25 08:36:28;;;;;;;13.88;3.80;;;;;;;;;;5026713;28;20032;-78
2022/07/25 08:38:54;;;;;;;6.78;3.90;;;;;;;;;;5026719;28;20029;-76
2022/07/25 08:41:19;;;;;;;11.35;3.60;;;;;;;;;;5026589;28;20029;-75
2022/07/25 08:43:48;;;;;;;6.68;3.63;;;;;;;;;;5026629;28;20125;-79
2022/07/25 08:46:14;;;;;;;11.45;4.00;;;;;;;;;;5026499;28;20064;-76
2022/07/25 08:48:40;;;;;;;8.88;3.78;;;;;;;;;;5026501;28;20026;-77
2022/07/25 08:51:07;;;;;;;7.43;3.35;;;;;;;;;;5026234;28;20689;-76
2022/07/25 08:53:32;;;;;;;6.97;3.28;;;;;;;;;;5026620;28;20032;-75
2022/07/25 08:55:58;;;;;;;8.68;3.42;;;;;;;;;;5025412;28;20026;-75
2022/07/25 08:58:23;;;;;;;9.00;3.20;;;;;;;;;;5026576;28;20025;-75
2022/07/25 09:00:49;;;;;;;9.45;3.97;;;;;;;;;;5025961;28;20084;-77
2022/07/25 09:03:14;;;;;;;10.02;3.28;;;;;;;;;;5026727;28;20030;-75
2022/07/25 09:05:40;;;;;;;7.15;3.55;;;;;;;;;;5026260;28;20515;-76
2022/07/25 09:08:16;;;;;;;11.07;3.25;;;;;;;;;;5028265;28;20477;-79
2022/07/25 09:10:49;;;;;;;8.82;3.58;;;;;;;;;;5029568;28;20033;-77
2022/07/25 09:13:16;;;;;;;8.15;3.58;;;;;;;;;;5029720;28;20030;-77
2022/07/25 09:15:50;;;;;;;9.00;3.33;;;;;;;;;;5028243;28;20384;-77
2022/07/25 09:18:21;;;;;;;6.72;3.22;;;;;;;;;;5029435;28;20033;-75
2022/07/25 09:20:49;;;;;;;7.05;3.45;;;;;;;;;;5029290;28;20044;-75
2022/07/25 09:23:33;;;;;;;7.53;3.60;;;;;;;;;;5029263;28;20636;-74
2022/07/25 09:26:13;;;;;;;8.15;3.45;;;;;;;;;;5029506;28;20542;-73
2022/07/25 09:28:42;;;;;;;6.68;3.65;;;;;;;;;;5029543;28;20026;-74
2022/07/25 09:31:08;;;;;;;8.93;3.80;;;;;;;;;;5029522;28;20022;-76
2022/07/25 09:33:43;;;;;;;5.93;3.25;;;;;;;;;;5029390;28;20032;-75
2022/07/25 09:36:10;;;;;;;10.02;3.53;;;;;;;;;;5029076;28;20112;-75
2022/07/25 09:38:36;;;;;;;7.47;3.30;;;;;;;;;;5029346;28;20026;-75
2022/07/25 09:41:02;;;;;;;9.63;3.70;;;;;;;;;;5028972;28;20033;-75
2022/07/25 09:43:39;;;;;;;13.10;3.47;;;;;;;;;;5028867;28;20029;-75
2022/07/25 09:46:05;;;;;;;11.05;4.45;;;;;;;;;;5029171;28;20025;-75
2022/07/25 09:48:31;;;;;;;7.95;3.28;;;;;;;;;;5029226;28;20033;-76
2022/07/25 09:50:57;;;;;;;6.45;3.28;;;;;;;;;;5028951;28;20026;-76
2022/07/25 09:53:23;;;;;;;6.30;3.38;;;;;;;;;;5029369;28;20025;-75
2022/07/25 09:55:49;;;;;;;8.15;3.38;;;;;;;;;;5028964;28;20033;-74
2022/07/25 09:58:14;;;;;;;10.48;3.33;;;;;;;;;;5028981;28;20500;-74
2022/07/25 10:00:41;;;;;;;9.25;3.72;;;;;;;;;;5028520;28;20137;-75
2022/07/25 10:03:24;;;;;;;7.78;3.60;;;;;;;;;;5029003;28;20025;-74
2022/07/25 10:06:26;;;;;;;7.55;3.45;;;;;;;;;;5028908;28;20029;-75
2022/07/25 10:08:53;;;;;;;8.02;3.35;;;;;;;;;;5028832;28;20033;-74
2022/07/25 10:11:24;;;;;;;8.27;3.15;;;;;;;;;;5028473;28;20025;-74
2022/07/25 10:13:50;;;;;;;7.68;3.50;;;;;;;;;;5028738;28;20606;-74
2022/07/25 10:16:24;;;;;;;5.68;3.60;;;;;;;;;;5028745;28;20093;-74
2022/07/25 10:18:56;;;;;;;6.80;3.65;;;;;;;;;;5027098;28;20435;-74
2022/07/25 10:21:23;;;;;;;6.68;3.70;;;;;;;;;;5028279;28;20030;-74
2022/07/25 10:24:01;;;;;;;8.65;3.80;;;;;;;;;;5028690;28;20107;-75
2022/07/25 10:26:26;;;;;;;7.90;3.65;;;;;;;;;;5028640;28;20032;-76
2022/07/25 10:28:54;;;;;;;8.13;3.72;;;;;;;;;;5028504;28;20022;-77
2022/07/25 10:31:44;;;;;;;6.10;3.50;;;;;;;;;;5028369;28;20022;-78
2022/07/25 10:34:12;;;;;;;7.70;3.60;;;;;;;;;;5028431;28;20047;-78
2022/07/25 10:36:55;;;;;;;8.43;3.60;;;;;;;;;;5028606;28;20408;-76
2022/07/25 10:39:22;;;;;;;9.77;3.65;;;;;;;;;;5028597;28;20029;-77
2022/07/25 10:41:58;;;;;;;8.52;3.78;;;;;;;;;;5028167;28;20104;-77
2022/07/25 10:44:29;;;;;;;7.28;3.83;;;;;;;;;;5028439;28;20037;-77
2022/07/25 10:47:11;;;;;;;8.10;3.80;;;;;;;;;;5028038;28;20094;-77
2022/07/25 10:49:40;;;;;;;7.32;3.80;;;;;;;;;;5028045;28;20026;-76
2022/07/25 10:52:06;;;;;;;7.28;3.50;;;;;;;;;;5028158;28;20025;-77
2022/07/25 10:54:34;;;;;;;5.70;3.65;;;;;;;;;;5028230;28;20029;-76
2022/07/25 10:57:00;;;;;;;7.50;3.60;;;;;;;;;;5028336;28;20048;-76
2022/07/25 10:59:37;;;;;;;6.90;3.80;;;;;;;;;;5028222;28;20485;-76
2022/07/25 11:02:05;;;;;;;9.50;4.30;;;;;;;;;;5027948;28;20045;-76
2022/07/25 11:04:31;;;;;;;7.38;3.92;;;;;;;;;;5028108;28;20085;-76
2022/07/25 11:07:10;;;;;;;9.40;3.88;;;;;;;;;;5027769;28;20034;-78
2022/07/25 11:09:36;;;;;;;8.07;3.72;;;;;;;;;;5027894;28;20405;-76
2022/07/25 11:12:02;;;;;;;8.88;3.72;;;;;;;;;;5027978;28;20030;-76
2022/07/25 11:14:40;;;;;;;8.05;3.55;;;;;;;;;;5027939;28;20174;-76
2022/07/25 11:17:08;;;;;;;8.35;4.30;;;;;;;;;;5027952;28;20630;-76
2022/07/25 11:19:34;;;;;;;7.60;3.63;;;;;;;;;;5027827;28;20033;-79
2022/07/25 11:22:00;;;;;;;8.10;3.75;;;;;;;;;;5027427;28;20081;-77
2022/07/25 11:24:44;;;;;;;6.03;3.72;;;;;;;;;;5027687;28;20033;-77
2022/07/25 11:27:21;;;;;;;9.23;3.60;;;;;;;;;;5027766;28;20044;-76
2022/07/25 11:29:47;;;;;;;6.40;3.40;;;;;;;;;;5026732;28;20029;-76
2022/07/25 11:32:12;;;;;;;7.20;3.60;;;;;;;;;;5027825;28;20028;-75
2022/07/25 11:34:46;;;;;;;6.10;3.67;;;;;;;;;;5026289;28;20599;-76
2022/07/25 11:37:12;;;;;;;7.78;3.28;;;;;;;;;;5027382;28;20497;-78
2022/07/25 11:39:40;;;;;;;6.85;3.60;;;;;;;;;;5027654;28;20048;-76
2022/07/25 11:42:07;;;;;;;8.27;3.58;;;;;;;;;;5026928;28;20646;-76
2022/07/25 11:44:55;;;;;;;8.32;2.80;;;;;;;;;;5027404;28;20029;-75
2022/07/25 11:47:25;;;;;;;5.82;2.60;;;;;;;;;;5027283;28;20025;-76
2022/07/25 11:49:53;;;;;;;4.43;2.70;;;;;;;;;;5027434;28;20033;-76
2022/07/25 11:52:18;;;;;;;6.38;3.22;;;;;;;;;;5027139;28;20558;-75
2022/07/25 11:55:05;;;;;;;8.57;3.55;;;;;;;;;;5027211;28;20461;-77
2022/07/25 11:57:33;;;;;;;6.43;3.00;;;;;;;;;;5027089;28;20036;-79
2022/07/25 12:00:00;;;;;;;6.00;2.92;;;;;;;;;;5027030;28;20064;-78
2022/07/25 12:02:31;;;;;;;5.07;2.97;;;;;;;;;;5026959;28;20041;-79
2022/07/25 12:04:59;;;;;;;6.28;2.88;;;;;;;;;;5027290;28;20078;-78
2022/07/25 12:07:34;;;;;;;7.28;3.35;;;;;;;;;;5027216;28;20025;-78
2022/07/25 12:10:00;;;;;;;7.22;2.70;;;;;;;;;;5027499;28;20026;-78
2022/07/25 12:12:25;;;;;;;4.68;2.50;;;;;;;;;;5027340;28;20021;-79
2022/07/25 12:14:51;;;;;;;8.40;2.60;;;;;;;;;;5027143;28;20053;-79
2022/07/25 12:17:19;;;;;;;7.25;2.40;;;;;;;;;;5027199;28;20125;-80
2022/07/25 12:19:46;;;;;;;5.60;2.30;;;;;;;;;;5026884;28;20053;-78
2022/07/25 12:22:12;;;;;;;8.18;2.20;;;;;;;;;;5026725;28;20029;-79
2022/07/25 12:24:37;;;;;;;6.70;2.38;;;;;;;;;;5026950;28;20029;-78
2022/07/25 12:27:03;;;;;;;8.77;2.30;;;;;;;;;;5027013;28;20021;-78
2022/07/25 12:29:28;;;;;;;7.15;2.17;;;;;;;;;;5026934;28;20036;-78
2022/07/25 12:31:54;;;;;;;9.20;2.75;;;;;;;;;;5026694;28;20022;-78
2022/07/25 12:34:20;;;;;;;8.50;2.53;;;;;;;;;;5026740;28;20025;-77
2022/07/25 12:36:45;;;;;;;4.30;2.40;;;;;;;;;;5026690;28;20035;-78
2022/07/25 12:39:11;;;;;;;5.40;2.35;;;;;;;;;;5025698;28;20029;-77
2022/07/25 12:41:36;;;;;;;5.80;2.25;;;;;;;;;;5028196;28;20444;-78
2022/07/25 12:44:03;;;;;;;7.82;2.60;;;;;;;;;;5030093;28;20457;-77
2022/07/25 12:46:28;;;;;;;6.03;2.40;;;;;;;;;;5028964;28;20033;-78
2022/07/25 12:48:54;;;;;;;4.25;2.10;;;;;;;;;;5030151;28;20100;-77
2022/07/25 12:51:19;;;;;;;5.20;2.47;;;;;;;;;;5028481;28;20052;-78
2022/07/25 12:53:45;;;;;;;5.85;2.20;;;;;;;;;;5030008;28;20106;-80
2022/07/25 12:56:11;;;;;;;6.70;3.53;;;;;;;;;;5030005;28;20104;-77
2022/07/25 12:58:36;;;;;;;5.38;2.60;;;;;;;;;;5030027;28;20117;-78
2022/07/25 13:01:03;;;;;;;5.90;2.47;;;;;;;;;;5029826;28;20050;-78
2022/07/25 13:03:28;;;;;;;3.80;2.17;;;;;;;;;;5030299;28;20041;-78
2022/07/25 13:05:54;;;;;;;6.95;2.67;;;;;;;;;;5029775;28;20021;-78
2022/07/25 13:08:19;;;;;;;5.45;2.47;;;;;;;;;;5028472;28;20037;-78
2022/07/25 13:10:45;;;;;;;4.93;2.33;;;;;;;;;;5029544;28;20066;-78
2022/07/25 13:13:10;;;;;;;6.20;2.42;;;;;;;;;;5029776;28;20046;-78
2022/07/25 13:15:36;;;;;;;5.22;2.50;;;;;;;;;;5028494;28;20034;-77
2022/07/25 13:18:02;;;;;;;6.18;2.50;;;;;;;;;;5029790;28;20036;-78
2022/07/25 13:20:28;;;;;;;5.40;2.20;;;;;;;;;;5029714;28;20029;-77
2022/07/25 13:22:53;;;;;;;5.88;2.40;;;;;;;;;;5029324;28;20033;-78
2022/07/25 13:25:19;;;;;;;9.73;2.60;;;;;;;;;;5029486;28;20036;-77
2022/07/25 13:27:47;;;;;;;5.45;2.47;;;;;;;;;;5029661;28;20034;-78
2022/07/25 13:30:13;;;;;;;9.20;2.60;;;;;;;;;;5029307;28;20037;-78
2022/07/25 13:32:39;;;;;;;7.22;2.42;;;;;;;;;;5029473;28;20112;-78
2022/07/25 13:35:05;;;;;;;15.27;2.60;;;;;;;;;;5029646;28;20057;-76
2022/07/25 13:37:31;;;;;;;5.97;2.38;;;;;;;;;;5029354;28;20512;-76
2022/07/25 13:39:57;;;;;;;4.97;2.38;;;;;;;;;;5029360;28;20539;-75
2022/07/25 13:42:23;;;;;;;11.88;2.75;;;;;;;;;;5029334;28;20030;-78
2022/07/25 13:44:48;;;;;;;8.70;2.40;;;;;;;;;;5029205;28;20389;-77
2022/07/25 13:47:14;;;;;;;5.63;2.45;;;;;;;;;;5029143;28;20041;-77
2022/07/25 13:49:40;;;;;;;5.80;2.40;;;;;;;;;;5029206;28;20495;-78
2022/07/25 13:52:05;;;;;;;6.60;2.40;;;;;;;;;;5028460;28;20481;-78
2022/07/25 13:54:31;;;;;;;14.18;2.75;;;;;;;;;;5029215;28;20040;-78
2022/07/25 13:56:57;;;;;;;11.55;2.97;;;;;;;;;;5029131;28;20036;-79
2022/07/25 13:59:22;;;;;;;6.10;2.60;;;;;;;;;;5029134;28;20021;-76
2022/07/25 14:01:49;;;;;;;7.00;2.33;;;;;;;;;;5027181;28;20588;-79
2022/07/25 14:04:15;;;;;;;5.78;2.60;;;;;;;;;;5029160;28;20097;-77
2022/07/25 14:06:40;;;;;;;6.97;2.50;;;;;;;;;;5027384;28;20489;-77
2022/07/25 14:09:06;;;;;;;6.57;2.53;;;;;;;;;;5028985;28;20021;-78
2022/07/25 14:11:31;;;;;;;7.80;2.60;;;;;;;;;;5028890;28;20063;-76
2022/07/25 14:13:57;;;;;;;4.97;2.45;;;;;;;;;;5028915;28;20070;-78
2022/07/25 14:16:23;;;;;;;7.22;2.60;;;;;;;;;;5028726;28;20022;-77
2022/07/25 14:18:49;;;;;;;7.05;2.53;;;;;;;;;;5028591;28;20025;-77
2022/07/25 14:21:15;;;;;;;7.40;2.75;;;;;;;;;;5028204;28;20072;-78
2022/07/25 14:23:40;;;;;;;5.18;2.65;;;;;;;;;;5028516;28;20061;-78
2022/07/25 14:26:05;;;;;;;7.53;2.55;;;;;;;;;;5028769;28;20029;-78
2022/07/25 14:28:31;;;;;;;6.03;2.60;;;;;;;;;;5028474;28;20036;-79
2022/07/25 14:30:58;;;;;;;6.68;3.00;;;;;;;;;;5028461;28;20026;-77
2022/07/25 14:33:24;;;;;;;6.53;3.00;;;;;;;;;;5028522;28;20034;-77
2022/07/25 14:35:50;;;;;;;5.25;2.90;;;;;;;;;;5028368;28;20128;-76
2022/07/25 14:38:15;;;;;;;4.97;2.47;;;;;;;;;;5028599;28;20105;-78